sensor_id;sensor_type;location;lat;lon;timestamp;temperature;humidity
24286;DHT22;26641;45.416;10.992;2023-06-22T00:00:30;27.20;99.90
24286;DHT22;26641;45.416;10.992;2023-06-22T00:02:56;27.20;99.90
24286;DHT22;26641;45.416;10.992;2023-06-22T00:05:22;27.20;99.90
24286;DHT22;26641;45.416;10.992;2023-06-22T00:07:48;27.20;99.90
24286;DHT22;26641;45.416;10.992;2023-06-22T00:10:14;27.20;99.90
24286;DHT22;26641;45.416;10.992;2023-06-22T00:12:40;27.20;99.90
24286;DHT22;26641;45.416;10.992;2023-06-22T00:15:06;27.30;99.90
24286;DHT22;26641;45.416;10.992;2023-06-22T00:17:32;27.20;99.90
24286;DHT22;26641;45.416;10.992;2023-06-22T00:19:57;27.20;99.90
24286;DHT22;26641;45.416;10.992;2023-06-22T00:22:23;27.20;99.90
24286;DHT22;26641;45.416;10.992;2023-06-22T00:24:56;27.20;99.90
24286;DHT22;26641;45.416;10.992;2023-06-22T00:27:22;27.30;99.90
24286;DHT22;26641;45.416;10.992;2023-06-22T00:29:48;27.20;99.90
24286;DHT22;26641;45.416;10.992;2023-06-22T00:32:14;27.30;99.90
24286;DHT22;26641;45.416;10.992;2023-06-22T00:34:40;27.30;99.90
24286;DHT22;26641;45.416;10.992;2023-06-22T00:37:05;27.20;99.90
24286;DHT22;26641;45.416;10.992;2023-06-22T00:39:31;27.20;99.90
24286;DHT22;26641;45.416;10.992;2023-06-22T00:41:59;27.20;99.90
24286;DHT22;26641;45.416;10.992;2023-06-22T00:44:25;27.20;99.90
24286;DHT22;26641;45.416;10.992;2023-06-22T00:46:54;27.20;99.90
24286;DHT22;26641;45.416;10.992;2023-06-22T00:49:20;27.20;99.90
24286;DHT22;26641;45.416;10.992;2023-06-22T00:51:46;27.20;99.90
24286;DHT22;26641;45.416;10.992;2023-06-22T00:54:19;27.20;99.90
24286;DHT22;26641;45.416;10.992;2023-06-22T00:56:51;27.20;99.90
24286;DHT22;26641;45.416;10.992;2023-06-22T00:59:20;27.20;99.90
24286;DHT22;26641;45.416;10.992;2023-06-22T01:01:46;27.20;99.90
24286;DHT22;26641;45.416;10.992;2023-06-22T01:04:11;27.20;99.90
24286;DHT22;26641;45.416;10.992;2023-06-22T01:06:58;27.20;99.90
24286;DHT22;26641;45.416;10.992;2023-06-22T01:09:31;27.20;99.90
24286;DHT22;26641;45.416;10.992;2023-06-22T01:12:00;27.20;99.90
24286;DHT22;26641;45.416;10.992;2023-06-22T01:14:41;27.20;99.90
24286;DHT22;26641;45.416;10.992;2023-06-22T01:17:08;27.20;99.90
24286;DHT22;26641;45.416;10.992;2023-06-22T01:21:59;27.20;99.90
24286;DHT22;26641;45.416;10.992;2023-06-22T01:24:27;27.20;99.90
24286;DHT22;26641;45.416;10.992;2023-06-22T01:29:40;27.20;99.90
24286;DHT22;26641;45.416;10.992;2023-06-22T01:32:06;27.20;99.90
24286;DHT22;26641;45.416;10.992;2023-06-22T01:34:32;27.20;99.90
24286;DHT22;26641;45.416;10.992;2023-06-22T01:36:59;27.20;99.90
24286;DHT22;26641;45.416;10.992;2023-06-22T01:39:26;27.20;99.90
24286;DHT22;26641;45.416;10.992;2023-06-22T01:41:53;27.20;99.90
24286;DHT22;26641;45.416;10.992;2023-06-22T01:44:19;27.20;99.90
24286;DHT22;26641;45.416;10.992;2023-06-22T01:46:45;27.20;99.90
24286;DHT22;26641;45.416;10.992;2023-06-22T01:49:11;27.20;99.90
24286;DHT22;26641;45.416;10.992;2023-06-22T01:51:37;27.20;99.90
24286;DHT22;26641;45.416;10.992;2023-06-22T01:54:05;27.20;99.90
24286;DHT22;26641;45.416;10.992;2023-06-22T01:56:31;27.10;99.90
24286;DHT22;26641;45.416;10.992;2023-06-22T01:59:01;27.20;99.90
24286;DHT22;26641;45.416;10.992;2023-06-22T02:01:32;27.10;99.90
24286;DHT22;26641;45.416;10.992;2023-06-22T02:04:06;27.20;99.90
24286;DHT22;26641;45.416;10.992;2023-06-22T02:06:36;27.10;99.90
24286;DHT22;26641;45.416;10.992;2023-06-22T02:09:05;27.10;99.90
24286;DHT22;26641;45.416;10.992;2023-06-22T02:11:31;27.10;99.90
24286;DHT22;26641;45.416;10.992;2023-06-22T02:13:58;27.10;99.90
24286;DHT22;26641;45.416;10.992;2023-06-22T02:16:25;27.10;99.90
24286;DHT22;26641;45.416;10.992;2023-06-22T02:18:55;27.10;99.90
24286;DHT22;26641;45.416;10.992;2023-06-22T02:21:28;27.10;99.90
24286;DHT22;26641;45.416;10.992;2023-06-22T02:23:54;27.10;99.90
24286;DHT22;26641;45.416;10.992;2023-06-22T02:26:20;27.10;99.90
24286;DHT22;26641;45.416;10.992;2023-06-22T02:28:46;27.10;99.90
24286;DHT22;26641;45.416;10.992;2023-06-22T02:31:12;27.10;99.90
24286;DHT22;26641;45.416;10.992;2023-06-22T02:33:39;27.10;99.90
24286;DHT22;26641;45.416;10.992;2023-06-22T02:36:04;27.10;99.90
24286;DHT22;26641;45.416;10.992;2023-06-22T02:38:31;27.10;99.90
24286;DHT22;26641;45.416;10.992;2023-06-22T02:40:58;27.10;99.90
24286;DHT22;26641;45.416;10.992;2023-06-22T02:43:24;27.10;99.90
24286;DHT22;26641;45.416;10.992;2023-06-22T02:45:50;27.10;99.90
24286;DHT22;26641;45.416;10.992;2023-06-22T02:48:16;27.10;99.90
24286;DHT22;26641;45.416;10.992;2023-06-22T02:50:42;27.10;99.90
24286;DHT22;26641;45.416;10.992;2023-06-22T02:53:07;27.10;99.90
24286;DHT22;26641;45.416;10.992;2023-06-22T02:55:33;27.10;99.90
24286;DHT22;26641;45.416;10.992;2023-06-22T02:57:59;27.10;99.90
24286;DHT22;26641;45.416;10.992;2023-06-22T03:00:27;27.10;99.90
24286;DHT22;26641;45.416;10.992;2023-06-22T03:02:55;27.10;99.90
24286;DHT22;26641;45.416;10.992;2023-06-22T03:05:22;27.10;99.90
24286;DHT22;26641;45.416;10.992;2023-06-22T03:07:48;27.10;99.90
24286;DHT22;26641;45.416;10.992;2023-06-22T03:10:14;27.10;99.90
24286;DHT22;26641;45.416;10.992;2023-06-22T03:12:40;27.10;99.90
24286;DHT22;26641;45.416;10.992;2023-06-22T03:15:11;27.10;99.90
24286;DHT22;26641;45.416;10.992;2023-06-22T03:17:36;27.10;99.90
24286;DHT22;26641;45.416;10.992;2023-06-22T03:20:04;27.10;99.90
24286;DHT22;26641;45.416;10.992;2023-06-22T03:22:35;27.10;99.90
24286;DHT22;26641;45.416;10.992;2023-06-22T03:25:01;27.10;99.90
24286;DHT22;26641;45.416;10.992;2023-06-22T03:27:26;27.10;99.90
24286;DHT22;26641;45.416;10.992;2023-06-22T03:29:52;27.10;99.90
24286;DHT22;26641;45.416;10.992;2023-06-22T03:32:18;27.10;99.90
24286;DHT22;26641;45.416;10.992;2023-06-22T03:34:44;27.10;99.90
24286;DHT22;26641;45.416;10.992;2023-06-22T03:37:13;27.10;99.90
24286;DHT22;26641;45.416;10.992;2023-06-22T03:39:38;27.10;99.90
24286;DHT22;26641;45.416;10.992;2023-06-22T03:42:04;27.10;99.90
24286;DHT22;26641;45.416;10.992;2023-06-22T03:44:30;27.00;99.90
24286;DHT22;26641;45.416;10.992;2023-06-22T03:46:56;27.10;99.90
24286;DHT22;26641;45.416;10.992;2023-06-22T03:49:22;27.10;99.90
24286;DHT22;26641;45.416;10.992;2023-06-22T03:51:48;27.10;99.90
24286;DHT22;26641;45.416;10.992;2023-06-22T03:54:14;27.10;99.90
24286;DHT22;26641;45.416;10.992;2023-06-22T03:56:40;27.10;99.90
24286;DHT22;26641;45.416;10.992;2023-06-22T03:59:05;27.10;99.90
24286;DHT22;26641;45.416;10.992;2023-06-22T04:01:31;27.00;99.90
24286;DHT22;26641;45.416;10.992;2023-06-22T04:03:57;27.10;99.90
24286;DHT22;26641;45.416;10.992;2023-06-22T04:06:23;27.00;99.90
24286;DHT22;26641;45.416;10.992;2023-06-22T04:08:49;27.00;99.90
24286;DHT22;26641;45.416;10.992;2023-06-22T04:11:16;27.10;99.90
24286;DHT22;26641;45.416;10.992;2023-06-22T04:13:42;27.00;99.90
24286;DHT22;26641;45.416;10.992;2023-06-22T04:16:08;27.00;99.90
24286;DHT22;26641;45.416;10.992;2023-06-22T04:18:34;27.00;99.90
24286;DHT22;26641;45.416;10.992;2023-06-22T04:21:01;27.00;99.90
24286;DHT22;26641;45.416;10.992;2023-06-22T04:23:27;27.00;99.90
24286;DHT22;26641;45.416;10.992;2023-06-22T04:25:53;27.00;99.90
24286;DHT22;26641;45.416;10.992;2023-06-22T04:28:19;27.00;99.90
24286;DHT22;26641;45.416;10.992;2023-06-22T04:30:47;26.90;99.90
24286;DHT22;26641;45.416;10.992;2023-06-22T04:33:16;26.80;99.90
24286;DHT22;26641;45.416;10.992;2023-06-22T04:35:44;26.80;99.90
24286;DHT22;26641;45.416;10.992;2023-06-22T04:38:11;26.60;99.90
24286;DHT22;26641;45.416;10.992;2023-06-22T04:40:38;26.40;99.90
24286;DHT22;26641;45.416;10.992;2023-06-22T04:43:05;26.50;99.90
24286;DHT22;26641;45.416;10.992;2023-06-22T04:45:32;26.40;99.90
24286;DHT22;26641;45.416;10.992;2023-06-22T04:47:58;26.20;99.90
24286;DHT22;26641;45.416;10.992;2023-06-22T04:50:24;26.20;99.90
24286;DHT22;26641;45.416;10.992;2023-06-22T04:52:50;26.20;99.90
24286;DHT22;26641;45.416;10.992;2023-06-22T04:55:16;26.30;99.90
24286;DHT22;26641;45.416;10.992;2023-06-22T04:57:45;26.20;99.90
24286;DHT22;26641;45.416;10.992;2023-06-22T05:00:17;26.20;99.90
24286;DHT22;26641;45.416;10.992;2023-06-22T05:02:48;26.10;99.90
24286;DHT22;26641;45.416;10.992;2023-06-22T05:05:14;26.20;99.90
24286;DHT22;26641;45.416;10.992;2023-06-22T05:07:46;26.30;99.90
24286;DHT22;26641;45.416;10.992;2023-06-22T05:10:16;26.40;99.90
24286;DHT22;26641;45.416;10.992;2023-06-22T05:12:42;26.50;99.90
24286;DHT22;26641;45.416;10.992;2023-06-22T05:15:08;26.40;99.90
24286;DHT22;26641;45.416;10.992;2023-06-22T05:17:34;26.40;99.90
24286;DHT22;26641;45.416;10.992;2023-06-22T05:19:59;26.50;99.90
24286;DHT22;26641;45.416;10.992;2023-06-22T05:22:25;26.60;99.90
24286;DHT22;26641;45.416;10.992;2023-06-22T05:24:50;26.60;99.90
24286;DHT22;26641;45.416;10.992;2023-06-22T05:27:17;26.70;99.90
24286;DHT22;26641;45.416;10.992;2023-06-22T05:29:42;26.70;99.90
24286;DHT22;26641;45.416;10.992;2023-06-22T05:32:08;26.70;99.90
24286;DHT22;26641;45.416;10.992;2023-06-22T05:34:34;26.80;99.90
24286;DHT22;26641;45.416;10.992;2023-06-22T05:37:00;26.80;99.90
24286;DHT22;26641;45.416;10.992;2023-06-22T05:39:26;26.80;99.90
24286;DHT22;26641;45.416;10.992;2023-06-22T05:41:52;26.80;99.90
24286;DHT22;26641;45.416;10.992;2023-06-22T05:44:18;26.80;99.90
24286;DHT22;26641;45.416;10.992;2023-06-22T05:46:44;26.80;99.90
24286;DHT22;26641;45.416;10.992;2023-06-22T05:49:11;26.80;99.90
24286;DHT22;26641;45.416;10.992;2023-06-22T05:51:37;26.80;99.90
24286;DHT22;26641;45.416;10.992;2023-06-22T05:54:03;26.80;99.90
24286;DHT22;26641;45.416;10.992;2023-06-22T05:56:29;26.80;99.90
24286;DHT22;26641;45.416;10.992;2023-06-22T05:58:55;26.80;99.90
24286;DHT22;26641;45.416;10.992;2023-06-22T06:01:21;26.80;99.90
24286;DHT22;26641;45.416;10.992;2023-06-22T06:03:46;26.90;99.90
24286;DHT22;26641;45.416;10.992;2023-06-22T06:06:12;26.90;99.90
24286;DHT22;26641;45.416;10.992;2023-06-22T06:08:41;26.90;99.90
24286;DHT22;26641;45.416;10.992;2023-06-22T06:11:06;26.90;99.90
24286;DHT22;26641;45.416;10.992;2023-06-22T06:13:32;26.80;99.90
24286;DHT22;26641;45.416;10.992;2023-06-22T06:15:58;26.90;99.90
24286;DHT22;26641;45.416;10.992;2023-06-22T06:18:24;26.90;99.90
24286;DHT22;26641;45.416;10.992;2023-06-22T06:20:50;26.90;99.90
24286;DHT22;26641;45.416;10.992;2023-06-22T06:23:16;26.90;99.90
24286;DHT22;26641;45.416;10.992;2023-06-22T06:25:42;26.90;99.90
24286;DHT22;26641;45.416;10.992;2023-06-22T06:28:07;26.90;99.90
24286;DHT22;26641;45.416;10.992;2023-06-22T06:30:33;26.90;99.90
24286;DHT22;26641;45.416;10.992;2023-06-22T06:33:03;26.90;99.90
24286;DHT22;26641;45.416;10.992;2023-06-22T06:35:34;26.90;99.90
24286;DHT22;26641;45.416;10.992;2023-06-22T06:38:00;26.90;99.90
24286;DHT22;26641;45.416;10.992;2023-06-22T06:40:26;26.90;99.90
24286;DHT22;26641;45.416;10.992;2023-06-22T06:42:51;26.90;99.90
24286;DHT22;26641;45.416;10.992;2023-06-22T06:45:18;26.90;99.90
24286;DHT22;26641;45.416;10.992;2023-06-22T06:47:44;26.90;99.90
24286;DHT22;26641;45.416;10.992;2023-06-22T06:50:10;26.90;99.90
24286;DHT22;26641;45.416;10.992;2023-06-22T06:52:36;26.90;99.90
24286;DHT22;26641;45.416;10.992;2023-06-22T06:55:02;26.90;99.90
24286;DHT22;26641;45.416;10.992;2023-06-22T06:57:30;27.00;99.90
24286;DHT22;26641;45.416;10.992;2023-06-22T06:59:56;27.00;99.90
24286;DHT22;26641;45.416;10.992;2023-06-22T07:02:22;27.00;99.90
24286;DHT22;26641;45.416;10.992;2023-06-22T07:04:47;27.00;99.90
24286;DHT22;26641;45.416;10.992;2023-06-22T07:07:14;26.90;99.90
24286;DHT22;26641;45.416;10.992;2023-06-22T07:09:39;26.90;99.90
24286;DHT22;26641;45.416;10.992;2023-06-22T07:12:05;27.00;99.90
24286;DHT22;26641;45.416;10.992;2023-06-22T07:14:31;26.90;99.90
24286;DHT22;26641;45.416;10.992;2023-06-22T07:16:57;27.00;99.90
24286;DHT22;26641;45.416;10.992;2023-06-22T07:19:26;27.00;99.90
24286;DHT22;26641;45.416;10.992;2023-06-22T07:21:52;27.00;99.90
24286;DHT22;26641;45.416;10.992;2023-06-22T07:24:19;27.00;99.90
24286;DHT22;26641;45.416;10.992;2023-06-22T07:26:45;27.00;99.90
24286;DHT22;26641;45.416;10.992;2023-06-22T07:29:12;27.00;99.90
24286;DHT22;26641;45.416;10.992;2023-06-22T07:31:37;27.00;99.90
24286;DHT22;26641;45.416;10.992;2023-06-22T07:34:05;27.00;99.90
24286;DHT22;26641;45.416;10.992;2023-06-22T07:36:31;27.00;99.90
24286;DHT22;26641;45.416;10.992;2023-06-22T07:38:56;27.00;99.90
24286;DHT22;26641;45.416;10.992;2023-06-22T07:41:22;27.00;99.90
24286;DHT22;26641;45.416;10.992;2023-06-22T07:43:49;27.00;99.90
24286;DHT22;26641;45.416;10.992;2023-06-22T07:46:15;27.00;99.90
24286;DHT22;26641;45.416;10.992;2023-06-22T07:48:41;27.00;99.90
24286;DHT22;26641;45.416;10.992;2023-06-22T07:51:07;27.00;99.90
24286;DHT22;26641;45.416;10.992;2023-06-22T07:53:32;27.00;99.90
24286;DHT22;26641;45.416;10.992;2023-06-22T07:55:58;27.00;99.90
24286;DHT22;26641;45.416;10.992;2023-06-22T07:58:24;27.00;99.90
24286;DHT22;26641;45.416;10.992;2023-06-22T08:00:50;27.00;99.90
24286;DHT22;26641;45.416;10.992;2023-06-22T08:03:16;27.00;99.90
24286;DHT22;26641;45.416;10.992;2023-06-22T08:05:42;27.00;99.90
24286;DHT22;26641;45.416;10.992;2023-06-22T08:08:08;27.00;99.90
24286;DHT22;26641;45.416;10.992;2023-06-22T08:10:34;27.00;99.90
24286;DHT22;26641;45.416;10.992;2023-06-22T08:12:59;27.00;99.90
24286;DHT22;26641;45.416;10.992;2023-06-22T08:15:26;27.00;99.90
24286;DHT22;26641;45.416;10.992;2023-06-22T08:17:52;27.10;99.90
24286;DHT22;26641;45.416;10.992;2023-06-22T08:20:17;27.00;99.90
24286;DHT22;26641;45.416;10.992;2023-06-22T08:22:43;27.00;99.90
24286;DHT22;26641;45.416;10.992;2023-06-22T08:25:09;27.00;99.90
24286;DHT22;26641;45.416;10.992;2023-06-22T08:27:35;27.00;99.90
24286;DHT22;26641;45.416;10.992;2023-06-22T08:30:01;27.00;99.90
24286;DHT22;26641;45.416;10.992;2023-06-22T08:32:28;27.10;99.90
24286;DHT22;26641;45.416;10.992;2023-06-22T08:34:54;27.10;99.90
24286;DHT22;26641;45.416;10.992;2023-06-22T08:37:20;27.00;99.90
24286;DHT22;26641;45.416;10.992;2023-06-22T08:39:46;27.10;99.90
24286;DHT22;26641;45.416;10.992;2023-06-22T08:42:12;27.10;99.90
24286;DHT22;26641;45.416;10.992;2023-06-22T08:44:38;27.00;99.90
24286;DHT22;26641;45.416;10.992;2023-06-22T08:47:04;27.10;99.90
24286;DHT22;26641;45.416;10.992;2023-06-22T08:49:31;27.10;99.90
24286;DHT22;26641;45.416;10.992;2023-06-22T08:51:57;27.10;99.90
24286;DHT22;26641;45.416;10.992;2023-06-22T08:54:23;27.10;99.90
24286;DHT22;26641;45.416;10.992;2023-06-22T08:56:49;27.10;99.90
24286;DHT22;26641;45.416;10.992;2023-06-22T08:59:15;27.10;99.90
24286;DHT22;26641;45.416;10.992;2023-06-22T09:01:41;27.10;99.90
24286;DHT22;26641;45.416;10.992;2023-06-22T09:04:11;27.10;99.90
24286;DHT22;26641;45.416;10.992;2023-06-22T09:06:37;27.10;99.90
24286;DHT22;26641;45.416;10.992;2023-06-22T09:09:07;27.10;99.90
24286;DHT22;26641;45.416;10.992;2023-06-22T09:11:33;27.10;99.90
24286;DHT22;26641;45.416;10.992;2023-06-22T09:13:58;27.10;99.90
24286;DHT22;26641;45.416;10.992;2023-06-22T09:16:24;27.10;99.90
24286;DHT22;26641;45.416;10.992;2023-06-22T09:18:51;27.10;99.90
24286;DHT22;26641;45.416;10.992;2023-06-22T09:21:17;27.10;99.90
24286;DHT22;26641;45.416;10.992;2023-06-22T09:23:43;27.10;99.90
24286;DHT22;26641;45.416;10.992;2023-06-22T09:26:09;27.10;99.90
24286;DHT22;26641;45.416;10.992;2023-06-22T09:28:35;27.10;99.90
24286;DHT22;26641;45.416;10.992;2023-06-22T09:31:01;27.10;99.90
24286;DHT22;26641;45.416;10.992;2023-06-22T09:33:27;27.10;99.90
24286;DHT22;26641;45.416;10.992;2023-06-22T09:35:52;27.10;99.90
24286;DHT22;26641;45.416;10.992;2023-06-22T09:38:18;27.10;99.90
24286;DHT22;26641;45.416;10.992;2023-06-22T09:40:43;27.10;99.90
24286;DHT22;26641;45.416;10.992;2023-06-22T09:43:09;27.10;99.90
24286;DHT22;26641;45.416;10.992;2023-06-22T09:45:36;27.10;99.90
24286;DHT22;26641;45.416;10.992;2023-06-22T09:48:02;27.10;99.90
24286;DHT22;26641;45.416;10.992;2023-06-22T09:50:28;27.10;99.90
24286;DHT22;26641;45.416;10.992;2023-06-22T09:52:54;27.10;99.90
24286;DHT22;26641;45.416;10.992;2023-06-22T09:55:20;27.10;99.90
24286;DHT22;26641;45.416;10.992;2023-06-22T09:57:46;27.10;99.90
24286;DHT22;26641;45.416;10.992;2023-06-22T10:00:12;27.10;99.90
24286;DHT22;26641;45.416;10.992;2023-06-22T10:02:39;27.10;99.90
24286;DHT22;26641;45.416;10.992;2023-06-22T10:05:05;27.10;99.90
24286;DHT22;26641;45.416;10.992;2023-06-22T10:07:31;27.10;99.90
24286;DHT22;26641;45.416;10.992;2023-06-22T10:09:57;27.10;99.90
24286;DHT22;26641;45.416;10.992;2023-06-22T10:12:23;27.10;99.90
24286;DHT22;26641;45.416;10.992;2023-06-22T10:14:48;27.20;99.90
24286;DHT22;26641;45.416;10.992;2023-06-22T10:17:14;27.10;99.90
24286;DHT22;26641;45.416;10.992;2023-06-22T10:19:40;27.10;99.90
24286;DHT22;26641;45.416;10.992;2023-06-22T10:22:06;27.20;99.90
24286;DHT22;26641;45.416;10.992;2023-06-22T10:24:32;27.20;99.90
24286;DHT22;26641;45.416;10.992;2023-06-22T10:26:58;27.20;99.90
24286;DHT22;26641;45.416;10.992;2023-06-22T10:29:24;27.20;99.90
24286;DHT22;26641;45.416;10.992;2023-06-22T10:31:50;27.20;99.90
24286;DHT22;26641;45.416;10.992;2023-06-22T10:34:16;27.20;99.90
24286;DHT22;26641;45.416;10.992;2023-06-22T10:36:42;27.20;99.90
24286;DHT22;26641;45.416;10.992;2023-06-22T10:39:07;27.20;99.90
24286;DHT22;26641;45.416;10.992;2023-06-22T10:41:34;27.20;99.90
24286;DHT22;26641;45.416;10.992;2023-06-22T10:44:00;27.20;99.90
24286;DHT22;26641;45.416;10.992;2023-06-22T10:46:27;27.20;99.90
24286;DHT22;26641;45.416;10.992;2023-06-22T10:48:53;27.20;99.90
24286;DHT22;26641;45.416;10.992;2023-06-22T10:51:20;27.20;99.90
24286;DHT22;26641;45.416;10.992;2023-06-22T10:53:46;27.20;99.90
24286;DHT22;26641;45.416;10.992;2023-06-22T10:56:12;27.20;99.90
24286;DHT22;26641;45.416;10.992;2023-06-22T10:58:37;27.20;99.90
24286;DHT22;26641;45.416;10.992;2023-06-22T11:01:03;27.20;99.90
24286;DHT22;26641;45.416;10.992;2023-06-22T11:03:29;27.20;99.90
24286;DHT22;26641;45.416;10.992;2023-06-22T11:05:55;27.20;99.90
24286;DHT22;26641;45.416;10.992;2023-06-22T11:08:21;27.20;99.90
24286;DHT22;26641;45.416;10.992;2023-06-22T11:10:47;27.20;99.90
24286;DHT22;26641;45.416;10.992;2023-06-22T11:13:13;27.20;99.90
24286;DHT22;26641;45.416;10.992;2023-06-22T11:15:39;27.30;99.90
24286;DHT22;26641;45.416;10.992;2023-06-22T11:18:05;27.30;99.90
24286;DHT22;26641;45.416;10.992;2023-06-22T11:20:32;27.30;99.90
24286;DHT22;26641;45.416;10.992;2023-06-22T11:22:59;27.20;99.90
24286;DHT22;26641;45.416;10.992;2023-06-22T11:25:25;27.20;99.90
24286;DHT22;26641;45.416;10.992;2023-06-22T11:27:52;27.20;99.90
24286;DHT22;26641;45.416;10.992;2023-06-22T11:30:19;27.30;99.90
24286;DHT22;26641;45.416;10.992;2023-06-22T11:32:45;27.30;99.90
24286;DHT22;26641;45.416;10.992;2023-06-22T11:35:11;27.30;99.90
24286;DHT22;26641;45.416;10.992;2023-06-22T11:37:37;27.30;99.90
24286;DHT22;26641;45.416;10.992;2023-06-22T11:40:02;27.30;99.90
24286;DHT22;26641;45.416;10.992;2023-06-22T11:42:30;27.30;99.90
24286;DHT22;26641;45.416;10.992;2023-06-22T11:44:56;27.30;99.90
24286;DHT22;26641;45.416;10.992;2023-06-22T11:47:22;27.30;99.90
24286;DHT22;26641;45.416;10.992;2023-06-22T11:49:48;27.30;99.90
24286;DHT22;26641;45.416;10.992;2023-06-22T11:52:14;27.30;99.90
24286;DHT22;26641;45.416;10.992;2023-06-22T11:54:39;27.30;99.90
24286;DHT22;26641;45.416;10.992;2023-06-22T11:57:05;27.30;99.90
24286;DHT22;26641;45.416;10.992;2023-06-22T11:59:30;27.30;99.90
24286;DHT22;26641;45.416;10.992;2023-06-22T12:01:57;27.40;99.90
24286;DHT22;26641;45.416;10.992;2023-06-22T12:04:23;27.30;99.90
24286;DHT22;26641;45.416;10.992;2023-06-22T12:06:50;27.40;99.90
24286;DHT22;26641;45.416;10.992;2023-06-22T12:09:16;27.40;99.90
24286;DHT22;26641;45.416;10.992;2023-06-22T12:11:42;27.40;99.90
24286;DHT22;26641;45.416;10.992;2023-06-22T12:14:08;27.40;99.90
24286;DHT22;26641;45.416;10.992;2023-06-22T12:16:34;27.40;99.90
24286;DHT22;26641;45.416;10.992;2023-06-22T12:19:00;27.40;99.90
24286;DHT22;26641;45.416;10.992;2023-06-22T12:21:25;27.30;99.90
24286;DHT22;26641;45.416;10.992;2023-06-22T12:23:51;27.40;99.90
24286;DHT22;26641;45.416;10.992;2023-06-22T12:26:17;27.40;99.90
24286;DHT22;26641;45.416;10.992;2023-06-22T12:28:43;27.40;99.90
24286;DHT22;26641;45.416;10.992;2023-06-22T12:31:09;27.40;99.90
24286;DHT22;26641;45.416;10.992;2023-06-22T12:33:34;27.40;99.90
24286;DHT22;26641;45.416;10.992;2023-06-22T12:36:00;27.40;99.90
24286;DHT22;26641;45.416;10.992;2023-06-22T12:38:26;27.40;99.90
24286;DHT22;26641;45.416;10.992;2023-06-22T12:40:52;27.40;99.90
24286;DHT22;26641;45.416;10.992;2023-06-22T12:43:18;27.40;99.90
24286;DHT22;26641;45.416;10.992;2023-06-22T12:45:44;27.40;99.90
24286;DHT22;26641;45.416;10.992;2023-06-22T12:48:10;27.40;99.90
24286;DHT22;26641;45.416;10.992;2023-06-22T12:50:36;27.40;99.90
24286;DHT22;26641;45.416;10.992;2023-06-22T12:53:02;27.40;99.90
24286;DHT22;26641;45.416;10.992;2023-06-22T12:55:29;27.40;99.90
24286;DHT22;26641;45.416;10.992;2023-06-22T12:57:55;27.40;99.90
24286;DHT22;26641;45.416;10.992;2023-06-22T13:00:21;27.40;99.90
24286;DHT22;26641;45.416;10.992;2023-06-22T13:02:47;27.40;99.90
24286;DHT22;26641;45.416;10.992;2023-06-22T13:05:13;27.40;99.90
24286;DHT22;26641;45.416;10.992;2023-06-22T13:07:39;27.40;99.90
24286;DHT22;26641;45.416;10.992;2023-06-22T13:10:04;27.40;99.90
24286;DHT22;26641;45.416;10.992;2023-06-22T13:12:30;27.50;99.90
24286;DHT22;26641;45.416;10.992;2023-06-22T13:14:56;27.40;99.90
24286;DHT22;26641;45.416;10.992;2023-06-22T13:17:22;27.50;99.90
24286;DHT22;26641;45.416;10.992;2023-06-22T13:19:48;27.40;99.90
24286;DHT22;26641;45.416;10.992;2023-06-22T13:22:26;27.50;99.90
24286;DHT22;26641;45.416;10.992;2023-06-22T13:24:54;27.50;99.90
24286;DHT22;26641;45.416;10.992;2023-06-22T13:27:19;27.50;99.90
24286;DHT22;26641;45.416;10.992;2023-06-22T13:29:46;27.50;99.90
24286;DHT22;26641;45.416;10.992;2023-06-22T13:32:11;27.50;99.90
24286;DHT22;26641;45.416;10.992;2023-06-22T13:34:37;27.50;99.90
24286;DHT22;26641;45.416;10.992;2023-06-22T13:37:04;27.50;99.90
24286;DHT22;26641;45.416;10.992;2023-06-22T13:39:30;27.50;99.90
24286;DHT22;26641;45.416;10.992;2023-06-22T13:41:57;27.50;99.90
24286;DHT22;26641;45.416;10.992;2023-06-22T13:44:23;27.50;99.90
24286;DHT22;26641;45.416;10.992;2023-06-22T13:46:53;27.50;99.90
24286;DHT22;26641;45.416;10.992;2023-06-22T13:49:18;27.60;99.90
24286;DHT22;26641;45.416;10.992;2023-06-22T13:51:44;27.60;99.90
24286;DHT22;26641;45.416;10.992;2023-06-22T13:54:10;27.60;99.90
24286;DHT22;26641;45.416;10.992;2023-06-22T13:56:35;27.60;99.90
24286;DHT22;26641;45.416;10.992;2023-06-22T13:59:01;27.60;99.90
24286;DHT22;26641;45.416;10.992;2023-06-22T14:01:27;27.60;99.90
24286;DHT22;26641;45.416;10.992;2023-06-22T14:03:53;27.60;99.90
24286;DHT22;26641;45.416;10.992;2023-06-22T14:06:19;27.60;99.90
24286;DHT22;26641;45.416;10.992;2023-06-22T14:08:45;27.70;99.90
24286;DHT22;26641;45.416;10.992;2023-06-22T14:11:11;27.60;99.90
24286;DHT22;26641;45.416;10.992;2023-06-22T14:13:36;27.60;99.90
24286;DHT22;26641;45.416;10.992;2023-06-22T14:16:02;27.70;99.90
24286;DHT22;26641;45.416;10.992;2023-06-22T14:18:29;27.70;99.90
24286;DHT22;26641;45.416;10.992;2023-06-22T14:20:56;27.70;99.90
24286;DHT22;26641;45.416;10.992;2023-06-22T14:23:22;27.70;99.90
24286;DHT22;26641;45.416;10.992;2023-06-22T14:25:48;27.70;99.90
24286;DHT22;26641;45.416;10.992;2023-06-22T14:28:15;27.70;99.90
24286;DHT22;26641;45.416;10.992;2023-06-22T14:30:41;27.70;99.90
24286;DHT22;26641;45.416;10.992;2023-06-22T14:33:07;27.70;99.90
24286;DHT22;26641;45.416;10.992;2023-06-22T14:35:33;27.70;99.90
24286;DHT22;26641;45.416;10.992;2023-06-22T14:37:59;27.70;99.90
24286;DHT22;26641;45.416;10.992;2023-06-22T14:40:25;27.70;99.90
24286;DHT22;26641;45.416;10.992;2023-06-22T14:42:51;27.70;99.90
24286;DHT22;26641;45.416;10.992;2023-06-22T14:45:16;27.60;99.90
24286;DHT22;26641;45.416;10.992;2023-06-22T14:47:42;27.60;99.90
24286;DHT22;26641;45.416;10.992;2023-06-22T14:50:07;27.60;99.90
24286;DHT22;26641;45.416;10.992;2023-06-22T14:52:33;27.70;99.90
24286;DHT22;26641;45.416;10.992;2023-06-22T14:54:59;27.70;99.90
24286;DHT22;26641;45.416;10.992;2023-06-22T14:57:25;27.70;99.90
24286;DHT22;26641;45.416;10.992;2023-06-22T14:59:51;27.70;99.90
24286;DHT22;26641;45.416;10.992;2023-06-22T15:02:19;27.70;99.90
24286;DHT22;26641;45.416;10.992;2023-06-22T15:04:45;27.70;99.90
24286;DHT22;26641;45.416;10.992;2023-06-22T15:07:10;27.70;99.90
24286;DHT22;26641;45.416;10.992;2023-06-22T15:09:36;27.70;99.90
24286;DHT22;26641;45.416;10.992;2023-06-22T15:12:04;27.70;99.90
24286;DHT22;26641;45.416;10.992;2023-06-22T15:14:33;27.70;99.90